sensor_id;sensor_type;location;lat;lon;timestamp;temperature;humidity
15554;DHT22;7878;44.632;10.942;2023-04-06T00:00:32;8.60;45.70
15554;DHT22;7878;44.632;10.942;2023-04-06T00:02:58;8.60;45.80
15554;DHT22;7878;44.632;10.942;2023-04-06T00:05:24;8.70;45.80
15554;DHT22;7878;44.632;10.942;2023-04-06T00:07:50;8.60;45.50
15554;DHT22;7878;44.632;10.942;2023-04-06T00:10:16;8.60;45.50
15554;DHT22;7878;44.632;10.942;2023-04-06T00:12:42;8.60;45.70
15554;DHT22;7878;44.632;10.942;2023-04-06T00:15:08;8.50;45.50
15554;DHT22;7878;44.632;10.942;2023-04-06T00:17:34;8.50;45.70
15554;DHT22;7878;44.632;10.942;2023-04-06T00:20:00;8.50;45.80
15554;DHT22;7878;44.632;10.942;2023-04-06T00:22:26;8.40;45.60
15554;DHT22;7878;44.632;10.942;2023-04-06T00:24:51;8.40;45.60
15554;DHT22;7878;44.632;10.942;2023-04-06T00:27:17;8.40;45.60
15554;DHT22;7878;44.632;10.942;2023-04-06T00:29:44;8.40;45.60
15554;DHT22;7878;44.632;10.942;2023-04-06T00:32:10;8.40;45.70
15554;DHT22;7878;44.632;10.942;2023-04-06T00:34:36;8.40;45.60
15554;DHT22;7878;44.632;10.942;2023-04-06T00:37:01;8.40;45.80
15554;DHT22;7878;44.632;10.942;2023-04-06T00:39:27;8.40;45.80
15554;DHT22;7878;44.632;10.942;2023-04-06T00:41:53;8.40;46.00
15554;DHT22;7878;44.632;10.942;2023-04-06T00:44:20;8.40;46.20
15554;DHT22;7878;44.632;10.942;2023-04-06T00:46:47;8.40;46.30
15554;DHT22;7878;44.632;10.942;2023-04-06T00:49:13;8.40;46.00
15554;DHT22;7878;44.632;10.942;2023-04-06T00:51:38;8.30;45.90
15554;DHT22;7878;44.632;10.942;2023-04-06T00:54:04;8.40;45.90
15554;DHT22;7878;44.632;10.942;2023-04-06T00:56:31;8.40;45.70
15554;DHT22;7878;44.632;10.942;2023-04-06T00:58:57;8.30;45.60
15554;DHT22;7878;44.632;10.942;2023-04-06T01:01:23;8.20;45.80
15554;DHT22;7878;44.632;10.942;2023-04-06T01:03:50;8.10;45.80
15554;DHT22;7878;44.632;10.942;2023-04-06T01:06:17;8.10;45.90
15554;DHT22;7878;44.632;10.942;2023-04-06T01:08:42;8.10;45.80
15554;DHT22;7878;44.632;10.942;2023-04-06T01:11:08;8.00;45.90
15554;DHT22;7878;44.632;10.942;2023-04-06T01:13:34;8.10;46.00
15554;DHT22;7878;44.632;10.942;2023-04-06T01:16:00;8.10;46.00
15554;DHT22;7878;44.632;10.942;2023-04-06T01:18:29;8.00;46.00
15554;DHT22;7878;44.632;10.942;2023-04-06T01:20:55;8.00;46.00
15554;DHT22;7878;44.632;10.942;2023-04-06T01:23:20;8.00;46.00
15554;DHT22;7878;44.632;10.942;2023-04-06T01:25:46;8.00;46.20
15554;DHT22;7878;44.632;10.942;2023-04-06T01:28:12;8.00;46.60
15554;DHT22;7878;44.632;10.942;2023-04-06T01:30:38;8.00;46.70
15554;DHT22;7878;44.632;10.942;2023-04-06T01:33:03;8.00;46.70
15554;DHT22;7878;44.632;10.942;2023-04-06T01:35:30;7.90;46.80
15554;DHT22;7878;44.632;10.942;2023-04-06T01:37:56;7.90;46.80
15554;DHT22;7878;44.632;10.942;2023-04-06T01:40:21;7.90;46.80
15554;DHT22;7878;44.632;10.942;2023-04-06T01:42:47;7.80;46.80
15554;DHT22;7878;44.632;10.942;2023-04-06T01:45:13;7.70;47.10
15554;DHT22;7878;44.632;10.942;2023-04-06T01:47:38;7.80;47.30
15554;DHT22;7878;44.632;10.942;2023-04-06T01:50:05;7.80;47.50
15554;DHT22;7878;44.632;10.942;2023-04-06T01:52:32;7.70;47.30
15554;DHT22;7878;44.632;10.942;2023-04-06T01:54:58;7.80;47.40
15554;DHT22;7878;44.632;10.942;2023-04-06T01:57:24;7.70;47.20
15554;DHT22;7878;44.632;10.942;2023-04-06T01:59:51;7.70;47.40
15554;DHT22;7878;44.632;10.942;2023-04-06T02:02:17;7.70;47.30
15554;DHT22;7878;44.632;10.942;2023-04-06T02:04:43;7.60;47.40
15554;DHT22;7878;44.632;10.942;2023-04-06T02:07:08;7.60;47.70
15554;DHT22;7878;44.632;10.942;2023-04-06T02:09:36;7.60;47.00
15554;DHT22;7878;44.632;10.942;2023-04-06T02:12:02;7.60;47.10
15554;DHT22;7878;44.632;10.942;2023-04-06T02:14:28;7.60;47.10
15554;DHT22;7878;44.632;10.942;2023-04-06T02:16:53;7.50;47.20
15554;DHT22;7878;44.632;10.942;2023-04-06T02:19:19;7.40;47.80
15554;DHT22;7878;44.632;10.942;2023-04-06T02:21:45;7.40;48.00
15554;DHT22;7878;44.632;10.942;2023-04-06T02:24:10;7.40;47.60
15554;DHT22;7878;44.632;10.942;2023-04-06T02:26:36;7.40;47.40
15554;DHT22;7878;44.632;10.942;2023-04-06T02:29:02;7.50;47.40
15554;DHT22;7878;44.632;10.942;2023-04-06T02:31:28;7.50;47.60
15554;DHT22;7878;44.632;10.942;2023-04-06T02:33:53;7.50;47.80
15554;DHT22;7878;44.632;10.942;2023-04-06T02:36:19;7.50;47.90
15554;DHT22;7878;44.632;10.942;2023-04-06T02:38:45;7.50;47.90
15554;DHT22;7878;44.632;10.942;2023-04-06T02:41:11;7.60;48.20
15554;DHT22;7878;44.632;10.942;2023-04-06T02:43:36;7.50;48.30
15554;DHT22;7878;44.632;10.942;2023-04-06T02:46:02;7.50;48.50
15554;DHT22;7878;44.632;10.942;2023-04-06T02:48:28;7.50;48.70
15554;DHT22;7878;44.632;10.942;2023-04-06T02:50:54;7.50;48.60
15554;DHT22;7878;44.632;10.942;2023-04-06T02:53:20;7.50;48.30
15554;DHT22;7878;44.632;10.942;2023-04-06T02:55:45;7.50;48.30
15554;DHT22;7878;44.632;10.942;2023-04-06T02:58:11;7.50;48.30
15554;DHT22;7878;44.632;10.942;2023-04-06T03:00:37;7.50;48.30
15554;DHT22;7878;44.632;10.942;2023-04-06T03:03:03;7.50;48.40
15554;DHT22;7878;44.632;10.942;2023-04-06T03:05:29;7.50;48.90
15554;DHT22;7878;44.632;10.942;2023-04-06T03:07:54;7.50;48.90
15554;DHT22;7878;44.632;10.942;2023-04-06T03:10:20;7.50;48.90
15554;DHT22;7878;44.632;10.942;2023-04-06T03:12:46;7.50;48.90
15554;DHT22;7878;44.632;10.942;2023-04-06T03:15:11;7.50;49.50
15554;DHT22;7878;44.632;10.942;2023-04-06T03:17:39;7.40;49.00
15554;DHT22;7878;44.632;10.942;2023-04-06T03:20:05;7.30;49.00
15554;DHT22;7878;44.632;10.942;2023-04-06T03:22:30;7.30;48.70
15554;DHT22;7878;44.632;10.942;2023-04-06T03:24:56;7.30;48.70
15554;DHT22;7878;44.632;10.942;2023-04-06T03:27:22;7.30;48.30
15554;DHT22;7878;44.632;10.942;2023-04-06T03:29:47;7.30;48.80
15554;DHT22;7878;44.632;10.942;2023-04-06T03:32:13;7.30;48.30
15554;DHT22;7878;44.632;10.942;2023-04-06T03:34:39;7.20;48.00
15554;DHT22;7878;44.632;10.942;2023-04-06T03:37:05;7.20;48.00
15554;DHT22;7878;44.632;10.942;2023-04-06T03:39:30;7.30;48.30
15554;DHT22;7878;44.632;10.942;2023-04-06T03:41:57;7.20;48.00
15554;DHT22;7878;44.632;10.942;2023-04-06T03:44:22;7.20;47.80
15554;DHT22;7878;44.632;10.942;2023-04-06T03:46:48;7.20;47.40
15554;DHT22;7878;44.632;10.942;2023-04-06T03:49:14;7.20;47.60
15554;DHT22;7878;44.632;10.942;2023-04-06T03:51:39;7.20;47.60
15554;DHT22;7878;44.632;10.942;2023-04-06T03:54:05;7.20;47.70
15554;DHT22;7878;44.632;10.942;2023-04-06T03:56:31;7.20;47.70
15554;DHT22;7878;44.632;10.942;2023-04-06T03:58:56;7.20;47.60
15554;DHT22;7878;44.632;10.942;2023-04-06T04:01:22;7.20;47.60
15554;DHT22;7878;44.632;10.942;2023-04-06T04:03:48;7.20;47.70
15554;DHT22;7878;44.632;10.942;2023-04-06T04:06:14;7.20;47.70
15554;DHT22;7878;44.632;10.942;2023-04-06T04:08:39;7.20;47.60
15554;DHT22;7878;44.632;10.942;2023-04-06T04:11:05;7.20;47.70
15554;DHT22;7878;44.632;10.942;2023-04-06T04:13:31;7.10;47.70
15554;DHT22;7878;44.632;10.942;2023-04-06T04:15:56;7.10;48.00
15554;DHT22;7878;44.632;10.942;2023-04-06T04:18:22;7.10;47.90
15554;DHT22;7878;44.632;10.942;2023-04-06T04:20:48;7.10;48.00
15554;DHT22;7878;44.632;10.942;2023-04-06T04:23:13;7.10;48.10
15554;DHT22;7878;44.632;10.942;2023-04-06T04:25:40;7.10;48.00
15554;DHT22;7878;44.632;10.942;2023-04-06T04:28:06;7.00;48.20
15554;DHT22;7878;44.632;10.942;2023-04-06T04:30:32;7.00;48.20
15554;DHT22;7878;44.632;10.942;2023-04-06T04:32:57;7.10;48.50
15554;DHT22;7878;44.632;10.942;2023-04-06T04:35:23;7.10;48.40
15554;DHT22;7878;44.632;10.942;2023-04-06T04:37:49;7.00;48.30
15554;DHT22;7878;44.632;10.942;2023-04-06T04:40:14;7.00;48.50
15554;DHT22;7878;44.632;10.942;2023-04-06T04:42:42;7.00;48.70
15554;DHT22;7878;44.632;10.942;2023-04-06T04:45:07;7.00;48.70
15554;DHT22;7878;44.632;10.942;2023-04-06T04:47:33;6.90;48.70
15554;DHT22;7878;44.632;10.942;2023-04-06T04:49:59;6.90;48.60
15554;DHT22;7878;44.632;10.942;2023-04-06T04:52:25;6.90;48.90
15554;DHT22;7878;44.632;10.942;2023-04-06T04:54:50;6.90;48.70
15554;DHT22;7878;44.632;10.942;2023-04-06T04:57:16;6.90;48.60
15554;DHT22;7878;44.632;10.942;2023-04-06T04:59:42;6.90;48.30
15554;DHT22;7878;44.632;10.942;2023-04-06T05:02:08;6.90;48.10
15554;DHT22;7878;44.632;10.942;2023-04-06T05:04:35;6.90;48.20
15554;DHT22;7878;44.632;10.942;2023-04-06T05:07:08;6.90;48.20
15554;DHT22;7878;44.632;10.942;2023-04-06T05:09:34;7.00;48.20
15554;DHT22;7878;44.632;10.942;2023-04-06T05:12:01;7.00;48.40
15554;DHT22;7878;44.632;10.942;2023-04-06T05:14:27;7.00;48.50
15554;DHT22;7878;44.632;10.942;2023-04-06T05:16:53;7.00;48.50
15554;DHT22;7878;44.632;10.942;2023-04-06T05:19:19;7.00;48.50
15554;DHT22;7878;44.632;10.942;2023-04-06T05:21:45;7.10;48.50
15554;DHT22;7878;44.632;10.942;2023-04-06T05:24:11;7.10;48.70
15554;DHT22;7878;44.632;10.942;2023-04-06T05:26:37;7.00;49.00
15554;DHT22;7878;44.632;10.942;2023-04-06T05:29:03;7.10;49.30
15554;DHT22;7878;44.632;10.942;2023-04-06T05:31:29;7.00;49.60
15554;DHT22;7878;44.632;10.942;2023-04-06T05:33:55;7.00;50.20
15554;DHT22;7878;44.632;10.942;2023-04-06T05:36:21;7.00;50.20
15554;DHT22;7878;44.632;10.942;2023-04-06T05:38:47;7.00;49.80
15554;DHT22;7878;44.632;10.942;2023-04-06T05:41:13;7.00;50.00
15554;DHT22;7878;44.632;10.942;2023-04-06T05:43:39;7.00;50.00
15554;DHT22;7878;44.632;10.942;2023-04-06T05:46:04;7.10;50.00
15554;DHT22;7878;44.632;10.942;2023-04-06T05:48:30;7.10;49.80
15554;DHT22;7878;44.632;10.942;2023-04-06T05:50:56;7.10;49.70
15554;DHT22;7878;44.632;10.942;2023-04-06T05:53:21;7.10;49.70
15554;DHT22;7878;44.632;10.942;2023-04-06T05:55:47;7.00;49.60
15554;DHT22;7878;44.632;10.942;2023-04-06T05:58:13;7.10;50.00
15554;DHT22;7878;44.632;10.942;2023-04-06T06:00:39;7.10;49.70
15554;DHT22;7878;44.632;10.942;2023-04-06T06:03:05;7.10;49.60
15554;DHT22;7878;44.632;10.942;2023-04-06T06:05:31;7.20;48.90
15554;DHT22;7878;44.632;10.942;2023-04-06T06:07:57;7.20;48.30
15554;DHT22;7878;44.632;10.942;2023-04-06T06:10:22;7.30;48.10
15554;DHT22;7878;44.632;10.942;2023-04-06T06:12:48;7.30;48.10
15554;DHT22;7878;44.632;10.942;2023-04-06T06:15:14;7.40;47.90
15554;DHT22;7878;44.632;10.942;2023-04-06T06:17:40;7.50;47.50
15554;DHT22;7878;44.632;10.942;2023-04-06T06:20:07;7.50;47.20
15554;DHT22;7878;44.632;10.942;2023-04-06T06:22:33;7.60;47.40
15554;DHT22;7878;44.632;10.942;2023-04-06T06:24:58;7.70;47.20
15554;DHT22;7878;44.632;10.942;2023-04-06T06:27:24;7.70;46.70
15554;DHT22;7878;44.632;10.942;2023-04-06T06:29:50;7.70;46.50
15554;DHT22;7878;44.632;10.942;2023-04-06T06:32:16;7.80;46.60
15554;DHT22;7878;44.632;10.942;2023-04-06T06:34:42;7.80;46.70
15554;DHT22;7878;44.632;10.942;2023-04-06T06:37:07;7.90;45.90
15554;DHT22;7878;44.632;10.942;2023-04-06T06:39:33;7.90;45.80
15554;DHT22;7878;44.632;10.942;2023-04-06T06:41:59;7.90;45.90
15554;DHT22;7878;44.632;10.942;2023-04-06T06:44:27;7.90;45.40
15554;DHT22;7878;44.632;10.942;2023-04-06T06:46:52;8.00;45.60
15554;DHT22;7878;44.632;10.942;2023-04-06T06:49:19;8.10;45.10
15554;DHT22;7878;44.632;10.942;2023-04-06T06:51:45;8.20;45.40
15554;DHT22;7878;44.632;10.942;2023-04-06T06:54:12;8.30;44.70
15554;DHT22;7878;44.632;10.942;2023-04-06T06:56:38;8.60;44.50
15554;DHT22;7878;44.632;10.942;2023-04-06T06:59:04;9.10;44.50
15554;DHT22;7878;44.632;10.942;2023-04-06T07:01:32;9.70;44.40
15554;DHT22;7878;44.632;10.942;2023-04-06T07:03:59;10.30;42.70
15554;DHT22;7878;44.632;10.942;2023-04-06T07:06:24;11.00;42.70
15554;DHT22;7878;44.632;10.942;2023-04-06T07:08:50;11.60;41.60
15554;DHT22;7878;44.632;10.942;2023-04-06T07:11:16;12.10;41.70
15554;DHT22;7878;44.632;10.942;2023-04-06T07:13:42;12.40;41.90
15554;DHT22;7878;44.632;10.942;2023-04-06T07:16:08;12.50;42.40
15554;DHT22;7878;44.632;10.942;2023-04-06T07:18:34;12.40;42.80
15554;DHT22;7878;44.632;10.942;2023-04-06T07:21:00;12.30;43.40
15554;DHT22;7878;44.632;10.942;2023-04-06T07:23:25;12.20;43.70
15554;DHT22;7878;44.632;10.942;2023-04-06T07:25:51;12.30;43.90
15554;DHT22;7878;44.632;10.942;2023-04-06T07:28:19;12.40;43.90
15554;DHT22;7878;44.632;10.942;2023-04-06T07:30:44;12.70;43.70
15554;DHT22;7878;44.632;10.942;2023-04-06T07:33:10;12.80;43.60
15554;DHT22;7878;44.632;10.942;2023-04-06T07:35:36;12.90;43.60
15554;DHT22;7878;44.632;10.942;2023-04-06T07:38:02;12.80;44.00
15554;DHT22;7878;44.632;10.942;2023-04-06T07:40:28;12.80;43.70
15554;DHT22;7878;44.632;10.942;2023-04-06T07:42:54;13.00;43.00
15554;DHT22;7878;44.632;10.942;2023-04-06T07:45:20;13.20;42.50
15554;DHT22;7878;44.632;10.942;2023-04-06T07:47:45;13.40;42.00
15554;DHT22;7878;44.632;10.942;2023-04-06T07:50:12;13.40;41.40
15554;DHT22;7878;44.632;10.942;2023-04-06T07:52:38;13.60;41.50
15554;DHT22;7878;44.632;10.942;2023-04-06T07:55:04;13.40;41.60
15554;DHT22;7878;44.632;10.942;2023-04-06T07:57:30;13.20;41.50
15554;DHT22;7878;44.632;10.942;2023-04-06T07:59:56;13.10;41.50
15554;DHT22;7878;44.632;10.942;2023-04-06T08:02:21;13.00;41.40
15554;DHT22;7878;44.632;10.942;2023-04-06T08:04:47;13.10;41.80
15554;DHT22;7878;44.632;10.942;2023-04-06T08:07:13;13.10;41.70
15554;DHT22;7878;44.632;10.942;2023-04-06T08:09:39;13.10;41.50
15554;DHT22;7878;44.632;10.942;2023-04-06T08:12:05;13.00;42.00
15554;DHT22;7878;44.632;10.942;2023-04-06T08:14:31;13.00;41.30
15554;DHT22;7878;44.632;10.942;2023-04-06T08:16:56;12.90;40.40
15554;DHT22;7878;44.632;10.942;2023-04-06T08:19:22;12.90;40.10
15554;DHT22;7878;44.632;10.942;2023-04-06T08:21:48;12.80;39.90
15554;DHT22;7878;44.632;10.942;2023-04-06T08:24:14;12.80;40.40
15554;DHT22;7878;44.632;10.942;2023-04-06T08:26:40;12.80;40.20
15554;DHT22;7878;44.632;10.942;2023-04-06T08:29:06;12.80;40.40
15554;DHT22;7878;44.632;10.942;2023-04-06T08:31:35;12.80;40.90
15554;DHT22;7878;44.632;10.942;2023-04-06T08:34:03;12.70;41.10
15554;DHT22;7878;44.632;10.942;2023-04-06T08:36:29;12.80;41.20
15554;DHT22;7878;44.632;10.942;2023-04-06T08:38:55;12.80;41.20
15554;DHT22;7878;44.632;10.942;2023-04-06T08:41:20;12.90;41.40
15554;DHT22;7878;44.632;10.942;2023-04-06T08:43:57;12.90;41.30
15554;DHT22;7878;44.632;10.942;2023-04-06T08:46:24;13.00;41.70
15554;DHT22;7878;44.632;10.942;2023-04-06T08:48:56;13.00;42.30
15554;DHT22;7878;44.632;10.942;2023-04-06T08:51:27;13.10;42.60
15554;DHT22;7878;44.632;10.942;2023-04-06T08:53:54;13.10;42.50
15554;DHT22;7878;44.632;10.942;2023-04-06T08:56:25;13.30;42.30
15554;DHT22;7878;44.632;10.942;2023-04-06T08:58:52;13.30;41.30
15554;DHT22;7878;44.632;10.942;2023-04-06T09:01:21;13.30;41.00
15554;DHT22;7878;44.632;10.942;2023-04-06T09:03:49;13.40;41.30
15554;DHT22;7878;44.632;10.942;2023-04-06T09:06:15;13.50;41.40
15554;DHT22;7878;44.632;10.942;2023-04-06T09:08:41;13.50;40.20
15554;DHT22;7878;44.632;10.942;2023-04-06T09:11:08;13.60;40.10
15554;DHT22;7878;44.632;10.942;2023-04-06T09:13:52;13.70;40.10
15554;DHT22;7878;44.632;10.942;2023-04-06T09:16:18;13.90;40.10
15554;DHT22;7878;44.632;10.942;2023-04-06T09:18:45;14.10;40.70
15554;DHT22;7878;44.632;10.942;2023-04-06T09:21:11;14.30;40.30
15554;DHT22;7878;44.632;10.942;2023-04-06T09:23:37;14.60;39.70
15554;DHT22;7878;44.632;10.942;2023-04-06T09:26:15;14.90;39.00
15554;DHT22;7878;44.632;10.942;2023-04-06T09:28:45;15.30;39.10
15554;DHT22;7878;44.632;10.942;2023-04-06T09:31:12;15.20;39.60
15554;DHT22;7878;44.632;10.942;2023-04-06T09:33:40;15.10;39.70
15554;DHT22;7878;44.632;10.942;2023-04-06T09:36:07;15.20;39.80
15554;DHT22;7878;44.632;10.942;2023-04-06T09:38:58;15.20;39.70
15554;DHT22;7878;44.632;10.942;2023-04-06T09:44:01;15.30;40.40
15554;DHT22;7878;44.632;10.942;2023-04-06T09:46:27;15.40;40.80
15554;DHT22;7878;44.632;10.942;2023-04-06T09:48:57;15.50;40.80
15554;DHT22;7878;44.632;10.942;2023-04-06T09:51:24;15.60;41.20
15554;DHT22;7878;44.632;10.942;2023-04-06T09:53:52;15.70;41.20
15554;DHT22;7878;44.632;10.942;2023-04-06T09:56:23;15.70;40.60
15554;DHT22;7878;44.632;10.942;2023-04-06T09:58:53;15.70;40.20
15554;DHT22;7878;44.632;10.942;2023-04-06T10:01:22;15.60;40.50
15554;DHT22;7878;44.632;10.942;2023-04-06T10:04:07;15.60;40.40
15554;DHT22;7878;44.632;10.942;2023-04-06T10:06:36;15.80;40.40
15554;DHT22;7878;44.632;10.942;2023-04-06T10:09:04;15.90;41.00
15554;DHT22;7878;44.632;10.942;2023-04-06T10:11:31;16.00;40.60
15554;DHT22;7878;44.632;10.942;2023-04-06T10:13:57;16.20;39.50
15554;DHT22;7878;44.632;10.942;2023-04-06T10:16:22;16.30;39.70
15554;DHT22;7878;44.632;10.942;2023-04-06T10:18:56;16.40;39.50
15554;DHT22;7878;44.632;10.942;2023-04-06T10:21:25;16.50;39.10
15554;DHT22;7878;44.632;10.942;2023-04-06T10:23:59;16.50;39.60
15554;DHT22;7878;44.632;10.942;2023-04-06T10:26:25;16.50;39.70
15554;DHT22;7878;44.632;10.942;2023-04-06T10:28:51;16.60;37.70
15554;DHT22;7878;44.632;10.942;2023-04-06T10:31:27;16.40;40.20
15554;DHT22;7878;44.632;10.942;2023-04-06T10:34:01;16.70;39.60
15554;DHT22;7878;44.632;10.942;2023-04-06T10:36:28;16.90;39.70
15554;DHT22;7878;44.632;10.942;2023-04-06T10:39:01;17.10;40.20
15554;DHT22;7878;44.632;10.942;2023-04-06T10:41:42;17.30;39.90
15554;DHT22;7878;44.632;10.942;2023-04-06T10:44:07;17.60;38.90
15554;DHT22;7878;44.632;10.942;2023-04-06T10:46:33;17.70;38.30
15554;DHT22;7878;44.632;10.942;2023-04-06T10:49:12;17.70;38.30
15554;DHT22;7878;44.632;10.942;2023-04-06T10:51:39;17.70;38.00
15554;DHT22;7878;44.632;10.942;2023-04-06T10:54:06;17.90;38.60
15554;DHT22;7878;44.632;10.942;2023-04-06T10:56:33;18.50;39.10
15554;DHT22;7878;44.632;10.942;2023-04-06T10:59:01;18.80;39.00
15554;DHT22;7878;44.632;10.942;2023-04-06T11:01:27;19.30;38.20
15554;DHT22;7878;44.632;10.942;2023-04-06T11:03:56;20.20;37.90
15554;DHT22;7878;44.632;10.942;2023-04-06T11:06:28;21.70;37.40
15554;DHT22;7878;44.632;10.942;2023-04-06T11:08:55;22.10;36.30
15554;DHT22;7878;44.632;10.942;2023-04-06T11:11:23;21.90;36.20
15554;DHT22;7878;44.632;10.942;2023-04-06T11:13:53;21.80;37.10
15554;DHT22;7878;44.632;10.942;2023-04-06T11:16:21;21.70;37.00
15554;DHT22;7878;44.632;10.942;2023-04-06T11:19:07;21.60;36.60
15554;DHT22;7878;44.632;10.942;2023-04-06T11:21:44;22.10;34.10
15554;DHT22;7878;44.632;10.942;2023-04-06T11:24:15;22.80;36.10
15554;DHT22;7878;44.632;10.942;2023-04-06T11:26:48;24.40;35.00
15554;DHT22;7878;44.632;10.942;2023-04-06T11:29:20;26.00;34.20
15554;DHT22;7878;44.632;10.942;2023-04-06T11:34:20;28.00;33.80
15554;DHT22;7878;44.632;10.942;2023-04-06T11:36:47;29.00;33.40
15554;DHT22;7878;44.632;10.942;2023-04-06T11:39:21;29.50;33.50
15554;DHT22;7878;44.632;10.942;2023-04-06T11:41:52;29.90;33.00
15554;DHT22;7878;44.632;10.942;2023-04-06T11:44:38;29.70;32.70
15554;DHT22;7878;44.632;10.942;2023-04-06T11:47:06;27.40;30.10
15554;DHT22;7878;44.632;10.942;2023-04-06T11:49:36;25.40;34.50
15554;DHT22;7878;44.632;10.942;2023-04-06T11:52:02;24.00;35.20
15554;DHT22;7878;44.632;10.942;2023-04-06T11:54:35;22.70;35.60
15554;DHT22;7878;44.632;10.942;2023-04-06T11:57:02;21.80;35.50
15554;DHT22;7878;44.632;10.942;2023-04-06T11:59:28;21.00;36.30
15554;DHT22;7878;44.632;10.942;2023-04-06T12:01:54;20.40;36.80
15554;DHT22;7878;44.632;10.942;2023-04-06T12:04:20;19.60;36.50
15554;DHT22;7878;44.632;10.942;2023-04-06T12:06:46;19.30;37.80
15554;DHT22;7878;44.632;10.942;2023-04-06T12:09:12;19.10;37.90
15554;DHT22;7878;44.632;10.942;2023-04-06T12:11:37;19.10;37.50
15554;DHT22;7878;44.632;10.942;2023-04-06T12:14:04;19.10;38.00
15554;DHT22;7878;44.632;10.942;2023-04-06T12:16:40;19.00;37.90
15554;DHT22;7878;44.632;10.942;2023-04-06T12:19:06;19.00;37.10
15554;DHT22;7878;44.632;10.942;2023-04-06T12:21:33;18.90;37.50
15554;DHT22;7878;44.632;10.942;2023-04-06T12:23:59;18.80;38.40
15554;DHT22;7878;44.632;10.942;2023-04-06T12:26:26;18.70;38.40
15554;DHT22;7878;44.632;10.942;2023-04-06T12:28:52;18.70;38.10
15554;DHT22;7878;44.632;10.942;2023-04-06T12:31:18;18.50;38.10
15554;DHT22;7878;44.632;10.942;2023-04-06T12:33:51;18.50;37.90
15554;DHT22;7878;44.632;10.942;2023-04-06T12:36:19;18.40;38.10
15554;DHT22;7878;44.632;10.942;2023-04-06T12:38:47;18.50;38.80
15554;DHT22;7878;44.632;10.942;2023-04-06T12:41:12;18.50;38.20
15554;DHT22;7878;44.632;10.942;2023-04-06T12:43:42;18.50;37.20
15554;DHT22;7878;44.632;10.942;2023-04-06T12:46:08;18.40;38.20
15554;DHT22;7878;44.632;10.942;2023-04-06T12:48:34;18.20;37.70
15554;DHT22;7878;44.632;10.942;2023-04-06T12:51:04;18.10;37.80
15554;DHT22;7878;44.632;10.942;2023-04-06T12:53:31;18.00;35.80
15554;DHT22;7878;44.632;10.942;2023-04-06T12:55:58;17.60;37.80
15554;DHT22;7878;44.632;10.942;2023-04-06T12:58:24;17.60;38.10
15554;DHT22;7878;44.632;10.942;2023-04-06T13:00:52;17.60;38.40
15554;DHT22;7878;44.632;10.942;2023-04-06T13:03:19;17.60;38.80
15554;DHT22;7878;44.632;10.942;2023-04-06T13:05:49;17.60;37.90
15554;DHT22;7878;44.632;10.942;2023-04-06T13:08:16;17.60;37.70
15554;DHT22;7878;44.632;10.942;2023-04-06T13:10:48;17.50;36.70
15554;DHT22;7878;44.632;10.942;2023-04-06T13:13:14;17.40;38.60
15554;DHT22;7878;44.632;10.942;2023-04-06T13:15:41;17.40;38.30
15554;DHT22;7878;44.632;10.942;2023-04-06T13:18:07;17.40;38.00
15554;DHT22;7878;44.632;10.942;2023-04-06T13:20:33;17.40;38.50
15554;DHT22;7878;44.632;10.942;2023-04-06T13:22:58;17.40;38.90
15554;DHT22;7878;44.632;10.942;2023-04-06T13:25:24;17.50;38.40
15554;DHT22;7878;44.632;10.942;2023-04-06T13:27:50;17.50;38.40
15554;DHT22;7878;44.632;10.942;2023-04-06T13:30:16;17.50;38.50
15554;DHT22;7878;44.632;10.942;2023-04-06T13:32:42;17.50;37.60
15554;DHT22;7878;44.632;10.942;2023-04-06T13:35:08;17.40;38.40
15554;DHT22;7878;44.632;10.942;2023-04-06T13:37:34;17.30;38.10
15554;DHT22;7878;44.632;10.942;2023-04-06T13:40:02;17.30;38.30
15554;DHT22;7878;44.632;10.942;2023-04-06T13:42:28;17.30;37.50
15554;DHT22;7878;44.632;10.942;2023-04-06T13:44:54;17.30;38.00
15554;DHT22;7878;44.632;10.942;2023-04-06T13:47:20;17.30;38.70
15554;DHT22;7878;44.632;10.942;2023-04-06T13:49:46;17.30;38.00
15554;DHT22;7878;44.632;10.942;2023-04-06T13:52:13;17.40;39.00
15554;DHT22;7878;44.632;10.942;2023-04-06T13:54:38;17.40;39.20
15554;DHT22;7878;44.632;10.942;2023-04-06T13:57:04;17.40;38.20
15554;DHT22;7878;44.632;10.942;2023-04-06T13:59:37;17.30;37.50
15554;DHT22;7878;44.632;10.942;2023-04-06T14:02:03;17.10;37.40
15554;DHT22;7878;44.632;10.942;2023-04-06T14:04:30;17.10;38.60
15554;DHT22;7878;44.632;10.942;2023-04-06T14:06:59;17.20;38.10
15554;DHT22;7878;44.632;10.942;2023-04-06T14:09:25;17.20;38.80
15554;DHT22;7878;44.632;10.942;2023-04-06T14:11:51;17.20;38.70
15554;DHT22;7878;44.632;10.942;2023-04-06T14:14:18;17.30;38.50
15554;DHT22;7878;44.632;10.942;2023-04-06T14:16:43;17.30;38.80
15554;DHT22;7878;44.632;10.942;2023-04-06T14:19:14;17.40;39.00
15554;DHT22;7878;44.632;10.942;2023-04-06T14:21:44;17.40;38.70
15554;DHT22;7878;44.632;10.942;2023-04-06T14:24:11;17.40;38.00
15554;DHT22;7878;44.632;10.942;2023-04-06T14:26:38;17.50;37.90
15554;DHT22;7878;44.632;10.942;2023-04-06T14:29:04;17.40;39.00
15554;DHT22;7878;44.632;10.942;2023-04-06T14:31:31;17.50;39.20
15554;DHT22;7878;44.632;10.942;2023-04-06T14:33:57;17.50;38.60
15554;DHT22;7878;44.632;10.942;2023-04-06T14:36:23;17.50;37.40
15554;DHT22;7878;44.632;10.942;2023-04-06T14:38:49;17.60;37.00
15554;DHT22;7878;44.632;10.942;2023-04-06T14:41:19;17.50;37.50
15554;DHT22;7878;44.632;10.942;2023-04-06T14:43:46;17.60;36.20
15554;DHT22;7878;44.632;10.942;2023-04-06T14:46:13;17.50;37.30
15554;DHT22;7878;44.632;10.942;2023-04-06T14:48:38;17.50;37.60
15554;DHT22;7878;44.632;10.942;2023-04-06T14:51:04;17.60;37.30
15554;DHT22;7878;44.632;10.942;2023-04-06T14:53:30;17.60;37.20
15554;DHT22;7878;44.632;10.942;2023-04-06T14:55:56;17.70;37.30
15554;DHT22;7878;44.632;10.942;2023-04-06T14:58:23;17.70;37.50
15554;DHT22;7878;44.632;10.942;2023-04-06T15:00:57;17.70;37.40
15554;DHT22;7878;44.632;10.942;2023-04-06T15:03:24;17.80;37.20
15554;DHT22;7878;44.632;10.942;2023-04-06T15:05:51;17.70;37.40
15554;DHT22;7878;44.632;10.942;2023-04-06T15:08:17;17.80;38.00
15554;DHT22;7878;44.632;10.942;2023-04-06T15:10:46;17.80;37.80
15554;DHT22;7878;44.632;10.942;2023-04-06T15:13:12;17.80;37.60
15554;DHT22;7878;44.632;10.942;2023-04-06T15:15:37;17.80;37.60
15554;DHT22;7878;44.632;10.942;2023-04-06T15:18:03;17.80;37.70
15554;DHT22;7878;44.632;10.942;2023-04-06T15:20:29;17.70;37.50
15554;DHT22;7878;44.632;10.942;2023-04-06T15:22:56;17.70;37.50
15554;DHT22;7878;44.632;10.942;2023-04-06T15:25:21;17.50;38.10
15554;DHT22;7878;44.632;10.942;2023-04-06T15:27:47;17.40;37.90
15554;DHT22;7878;44.632;10.942;2023-04-06T15:30:13;17.40;38.40
15554;DHT22;7878;44.632;10.942;2023-04-06T15:32:39;17.40;38.80
15554;DHT22;7878;44.632;10.942;2023-04-06T15:35:09;17.50;39.10
15554;DHT22;7878;44.632;10.942;2023-04-06T15:37:36;17.50;38.60
15554;DHT22;7878;44.632;10.942;2023-04-06T15:40:02;17.50;38.80